Time;durP1;ratioP1;P1;durP2;ratioP2;P2;SDS_P1;SDS_P2;PMS_P1;PMS_P2;Temp;Humidity;BMP_temperature;BMP_pressure;BME280_temperature;BME280_humidity;BME280_pressure;Samples;Min_cycle;Max_cycle;Signal;HPM_P1;HPM_P2
2022/02/01 00:02:00;;;;;;;;;;;19.40;57.10;;;;;;5073449;28;1648;-69
2022/02/01 00:04:54;;;;;;;;;;;19.40;57.20;;;;;;5072116;28;1712;-69
2022/02/01 00:07:36;;;;;;;;;;;19.40;57.20;;;;;;5071809;28;1609;-69
2022/02/01 00:12:40;;;;;;;;;;;19.40;57.20;;;;;;5072757;28;1650;-68
2022/02/01 00:36:35;;;;;;;;;;;19.40;57.10;;;;;;5060786;28;1296;-70
2022/02/01 00:39:08;;;;;;;;;;;19.40;57.20;;;;;;5052449;28;1910;-67
2022/02/01 00:41:35;;;;;;;;;;;19.40;57.10;;;;;;5052675;28;1043;-69
2022/02/01 00:44:01;;;;;;;;;;;19.40;57.10;;;;;;5052771;28;1384;-67
2022/02/01 00:46:27;;;;;;;;;;;19.40;57.10;;;;;;5050941;28;1358;-67
2022/02/01 00:48:52;;;;;;;;;;;19.40;57.10;;;;;;5051168;28;1701;-67
2022/02/01 00:51:18;;;;;;;;;;;19.40;57.10;;;;;;5052556;28;1286;-67
2022/02/01 00:53:43;;;;;;;;;;;19.40;57.10;;;;;;5052449;28;1334;-67
2022/02/01 00:56:09;;;;;;;;;;;19.40;57.10;;;;;;5052061;28;1290;-68
2022/02/01 00:58:35;;;;;;;;;;;19.40;57.10;;;;;;5052685;28;1898;-68
2022/02/01 01:01:00;;;;;;;;;;;19.40;57.10;;;;;;5050942;28;1263;-69
2022/02/01 01:03:26;;;;;;;;;;;19.40;57.10;;;;;;5052292;28;1037;-68
2022/02/01 01:05:53;;;;;;;;;;;19.40;57.10;;;;;;5050747;28;1282;-68
2022/02/01 01:08:19;;;;;;;;;;;19.40;57.10;;;;;;5052383;28;999;-70
2022/02/01 01:10:44;;;;;;;;;;;19.40;57.20;;;;;;5064472;28;1462;-68
2022/02/01 01:15:41;;;;;;;;;;;19.40;57.20;;;;;;5072132;28;1456;-67
2022/02/01 01:46:10;;;;;;;;;;;19.30;57.30;;;;;;5074353;28;1771;-69
2022/02/01 01:54:01;;;;;;;;;;;19.30;57.40;;;;;;5075356;28;1355;-69
2022/02/01 01:56:26;;;;;;;;;;;19.30;57.30;;;;;;5073781;28;1446;-67
2022/02/01 01:58:52;;;;;;;;;;;19.30;57.40;;;;;;5073886;28;1959;-69
2022/02/01 02:01:17;;;;;;;;;;;19.30;57.30;;;;;;5073976;28;1573;-69
2022/02/01 02:03:43;;;;;;;;;;;19.30;57.30;;;;;;5074126;28;1289;-70
2022/02/01 02:06:09;;;;;;;;;;;19.30;57.30;;;;;;5073427;28;1352;-69
2022/02/01 02:08:35;;;;;;;;;;;19.30;57.40;;;;;;5074006;28;1288;-70
2022/02/01 02:11:10;;;;;;;;;;;19.30;57.40;;;;;;5073806;28;1336;-69
2022/02/01 02:16:31;;;;;;;;;;;19.30;57.40;;;;;;5074671;28;1173;-68
2022/02/01 02:18:56;;;;;;;;;;;19.30;57.40;;;;;;5075043;28;1897;-69
2022/02/01 02:21:22;;;;;;;;;;;19.30;57.40;;;;;;5074782;28;1373;-65
2022/02/01 02:23:47;;;;;;;;;;;19.30;57.40;;;;;;5074348;28;1149;-68
2022/02/01 02:26:13;;;;;;;;;;;19.30;57.40;;;;;;5074500;28;1367;-67
2022/02/01 02:28:38;;;;;;;;;;;19.30;57.40;;;;;;5074700;28;1296;-67
2022/02/01 02:31:04;;;;;;;;;;;19.30;57.40;;;;;;5056756;28;1308;-68
2022/02/01 02:33:31;;;;;;;;;;;19.30;57.40;;;;;;5059982;28;1217;-67
2022/02/01 02:36:01;;;;;;;;;;;19.30;57.40;;;;;;5063858;28;1351;-68
2022/02/01 02:38:49;;;;;;;;;;;19.30;57.40;;;;;;5054349;28;1902;-68
2022/02/01 02:41:31;;;;;;;;;;;19.30;57.40;;;;;;5054595;28;1035;-68
2022/02/01 02:46:43;;;;;;;;;;;19.30;57.30;;;;;;5073120;28;1290;-68
2022/02/01 02:49:08;;;;;;;;;;;19.30;57.30;;;;;;5072990;28;1592;-68
2022/02/01 02:51:34;;;;;;;;;;;19.30;57.30;;;;;;5074296;28;1296;-65
2022/02/01 02:54:06;;;;;;;;;;;19.30;57.30;;;;;;5072889;28;1359;-68
2022/02/01 02:56:32;;;;;;;;;;;19.30;57.20;;;;;;5073876;28;1403;-68
2022/02/01 02:58:57;;;;;;;;;;;19.40;57.80;;;;;;5072494;28;1898;-68
2022/02/01 03:01:22;;;;;;;;;;;19.40;57.10;;;;;;5073975;28;1315;-69
2022/02/01 03:03:48;;;;;;;;;;;19.40;57.10;;;;;;5074125;28;1337;-68
2022/02/01 03:06:13;;;;;;;;;;;19.50;57.60;;;;;;5072299;28;1420;-69
2022/02/01 03:08:39;;;;;;;;;;;19.50;56.90;;;;;;5072689;28;1382;-68
2022/02/01 03:11:09;;;;;;;;;;;19.50;56.80;;;;;;5073744;28;1061;-68
2022/02/01 03:13:35;;;;;;;;;;;19.50;56.70;;;;;;5073795;28;1367;-68
2022/02/01 03:16:11;;;;;;;;;;;19.60;56.70;;;;;;5071902;28;1456;-68
2022/02/01 03:21:21;;;;;;;;;;;19.60;56.60;;;;;;5072310;28;1029;-68
2022/02/01 03:23:48;;;;;;;;;;;19.60;56.50;;;;;;5070842;28;1550;-68
2022/02/01 03:26:14;;;;;;;;;;;19.60;56.50;;;;;;5080344;28;1411;-67
2022/02/01 03:28:39;;;;;;;;;;;19.70;56.50;;;;;;5080034;28;1335;-67
2022/02/01 03:31:04;;;;;;;;;;;19.70;56.40;;;;;;5081533;28;1299;-67
2022/02/01 03:33:30;;;;;;;;;;;19.60;56.40;;;;;;5077354;28;1357;-67
2022/02/01 03:35:55;;;;;;;;;;;19.70;56.40;;;;;;5080692;28;1396;-67
2022/02/01 03:38:21;;;;;;;;;;;19.70;56.40;;;;;;5082066;28;1965;-67
2022/02/01 03:40:46;;;;;;;;;;;19.70;56.30;;;;;;5081357;28;1239;-65
2022/02/01 03:43:12;;;;;;;;;;;19.70;56.30;;;;;;5075914;28;1627;-68
2022/02/01 03:45:37;;;;;;;;;;;19.70;56.30;;;;;;5069723;28;1365;-68
2022/02/01 03:48:03;;;;;;;;;;;19.70;56.30;;;;;;5071315;28;1356;-68
2022/02/01 03:50:28;;;;;;;;;;;19.70;56.30;;;;;;5059913;28;1674;-68
2022/02/01 03:52:53;;;;;;;;;;;19.70;56.20;;;;;;5072122;28;1642;-68
2022/02/01 03:55:19;;;;;;;;;;;19.70;56.30;;;;;;5072804;28;1282;-69
2022/02/01 03:57:45;;;;;;;;;;;19.70;56.20;;;;;;5071899;28;1894;-68
2022/02/01 04:00:10;;;;;;;;;;;19.70;56.30;;;;;;5072897;28;1318;-68
2022/02/01 04:02:36;;;;;;;;;;;19.70;56.20;;;;;;5073262;28;1418;-68
2022/02/01 04:05:01;;;;;;;;;;;19.70;56.30;;;;;;5071752;28;1153;-68
2022/02/01 04:07:27;;;;;;;;;;;19.70;56.20;;;;;;5072870;28;1289;-68
2022/02/01 04:09:52;;;;;;;;;;;19.70;56.20;;;;;;5072574;28;1078;-68
2022/02/01 04:12:18;;;;;;;;;;;19.70;56.20;;;;;;5072799;28;1276;-69
2022/02/01 04:14:45;;;;;;;;;;;19.70;56.20;;;;;;5071713;28;1252;-68
2022/02/01 04:17:11;;;;;;;;;;;19.70;56.20;;;;;;5072687;28;1957;-69
2022/02/01 04:19:37;;;;;;;;;;;19.70;56.20;;;;;;5072897;28;1417;-68
2022/02/01 04:22:03;;;;;;;;;;;19.70;56.20;;;;;;5072726;28;1121;-69
2022/02/01 04:24:29;;;;;;;;;;;19.70;56.20;;;;;;5071267;28;1090;-69
2022/02/01 04:26:54;;;;;;;;;;;19.70;56.20;;;;;;5071465;28;1409;-68
2022/02/01 04:29:20;;;;;;;;;;;19.70;56.20;;;;;;5072681;28;1034;-68
2022/02/01 04:31:45;;;;;;;;;;;19.70;56.20;;;;;;5054436;28;1434;-69
2022/02/01 04:34:11;;;;;;;;;;;19.70;56.20;;;;;;5056720;28;1289;-69
2022/02/01 04:36:36;;;;;;;;;;;19.70;56.20;;;;;;5057560;28;1262;-68
2022/02/01 04:39:02;;;;;;;;;;;19.70;56.20;;;;;;5059154;28;1963;-69
2022/02/01 04:41:28;;;;;;;;;;;19.70;56.20;;;;;;5057732;28;1139;-69
2022/02/01 04:43:53;;;;;;;;;;;19.70;56.80;;;;;;5071537;28;1134;-68
2022/02/01 04:46:19;;;;;;;;;;;19.70;56.20;;;;;;5058649;28;1279;-68
2022/02/01 04:48:45;;;;;;;;;;;19.70;56.20;;;;;;5051410;28;1142;-68
2022/02/01 04:51:10;;;;;;;;;;;19.70;56.20;;;;;;5064523;28;1424;-67
2022/02/01 04:53:36;;;;;;;;;;;19.70;56.20;;;;;;5059396;28;1260;-69
2022/02/01 04:56:01;;;;;;;;;;;19.70;56.20;;;;;;5072027;28;1339;-70
2022/02/01 04:58:27;;;;;;;;;;;19.70;56.20;;;;;;5071365;28;1926;-68
2022/02/01 05:00:53;;;;;;;;;;;19.70;56.20;;;;;;5076464;28;1066;-69
2022/02/01 05:03:19;;;;;;;;;;;19.70;56.20;;;;;;5075162;28;1268;-69
2022/02/01 05:05:44;;;;;;;;;;;19.70;56.20;;;;;;5074686;28;1771;-69
2022/02/01 05:08:11;;;;;;;;;;;19.70;56.20;;;;;;5076118;28;1146;-68
2022/02/01 05:10:37;;;;;;;;;;;19.70;56.20;;;;;;5075003;28;1070;-68
2022/02/01 05:15:36;;;;;;;;;;;19.70;56.20;;;;;;5076001;28;1357;-68
2022/02/01 05:18:02;;;;;;;;;;;19.70;56.20;;;;;;5074833;28;1953;-68
2022/02/01 05:20:43;;;;;;;;;;;19.70;56.20;;;;;;5075918;28;1113;-68
2022/02/01 05:23:08;;;;;;;;;;;19.70;56.20;;;;;;5076071;28;1071;-69
2022/02/01 05:25:34;;;;;;;;;;;19.70;56.20;;;;;;5074352;28;1352;-68
2022/02/01 05:28:00;;;;;;;;;;;19.70;56.20;;;;;;5075922;28;1363;-68
2022/02/01 05:30:26;;;;;;;;;;;19.70;56.20;;;;;;5062351;28;1213;-68
2022/02/01 05:32:52;;;;;;;;;;;19.70;56.20;;;;;;5048403;28;1398;-68
2022/02/01 05:35:17;;;;;;;;;;;19.70;56.20;;;;;;5064587;28;1150;-69
2022/02/01 05:37:42;;;;;;;;;;;19.70;56.20;;;;;;5055478;28;1902;-68
2022/02/01 05:40:10;;;;;;;;;;;19.70;56.20;;;;;;5058182;28;1282;-68
2022/02/01 05:42:44;;;;;;;;;;;19.70;56.20;;;;;;5064844;28;1146;-69
2022/02/01 05:45:09;;;;;;;;;;;19.70;56.20;;;;;;5072875;28;1126;-68
2022/02/01 05:47:34;;;;;;;;;;;19.70;56.30;;;;;;5074116;28;1331;-68
2022/02/01 05:50:00;;;;;;;;;;;19.70;56.30;;;;;;5073865;28;1385;-68
2022/02/01 05:52:25;;;;;;;;;;;19.70;56.20;;;;;;5074065;28;1615;-68
2022/02/01 05:54:51;;;;;;;;;;;19.70;56.20;;;;;;5057152;28;1130;-68
2022/02/01 05:57:16;;;;;;;;;;;19.70;56.20;;;;;;5053775;28;1898;-69
2022/02/01 05:59:42;;;;;;;;;;;19.80;56.20;;;;;;5055334;28;1118;-69
2022/02/01 06:02:07;;;;;;;;;;;19.80;56.30;;;;;;5053886;28;1298;-68
2022/02/01 06:04:33;;;;;;;;;;;19.90;56.00;;;;;;5067524;28;1476;-68
2022/02/01 06:06:58;;;;;;;;;;;19.90;55.80;;;;;;5054767;28;1342;-68
2022/02/01 06:09:23;;;;;;;;;;;19.90;55.80;;;;;;5067274;28;1349;-68
2022/02/01 06:11:49;;;;;;;;;;;20.00;55.70;;;;;;5054732;28;1082;-68
2022/02/01 06:14:14;;;;;;;;;;;20.00;55.60;;;;;;5053614;28;1417;-69
2022/02/01 06:16:40;;;;;;;;;;;20.00;55.60;;;;;;5054619;28;1205;-67
2022/02/01 06:19:05;;;;;;;;;;;20.00;55.50;;;;;;5082142;22;1917;-72
2022/02/01 06:21:31;;;;;;;;;;;20.10;55.50;;;;;;5064297;28;1121;-71
2022/02/01 06:23:56;;;;;;;;;;;20.10;55.50;;;;;;5073139;28;1095;-73
2022/02/01 06:26:22;;;;;;;;;;;20.10;55.40;;;;;;5072901;28;1130;-72
2022/02/01 06:28:48;;;;;;;;;;;20.10;55.40;;;;;;5071018;28;1369;-72
2022/02/01 06:31:13;;;;;;;;;;;20.10;55.40;;;;;;5062267;28;1293;-71
2022/02/01 06:33:38;;;;;;;;;;;20.10;55.40;;;;;;5074125;28;1172;-72
2022/02/01 06:36:04;;;;;;;;;;;20.10;55.40;;;;;;5073341;28;1169;-72
2022/02/01 06:38:29;;;;;;;;;;;20.10;55.40;;;;;;5073833;28;1917;-71
2022/02/01 06:40:55;;;;;;;;;;;20.10;55.40;;;;;;5074406;28;1316;-72
2022/02/01 06:43:21;;;;;;;;;;;20.10;55.30;;;;;;5054589;28;1048;-72
2022/02/01 06:45:46;;;;;;;;;;;20.10;55.40;;;;;;5072597;28;1138;-72
2022/02/01 06:48:12;;;;;;;;;;;20.10;55.40;;;;;;5073969;28;1354;-72
2022/02/01 06:50:37;;;;;;;;;;;20.10;56.00;;;;;;5072402;28;1214;-72
2022/02/01 06:53:04;;;;;;;;;;;20.10;55.40;;;;;;5072508;28;1130;-72
2022/02/01 06:55:35;;;;;;;;;;;20.10;55.40;;;;;;5073364;28;1237;-74
2022/02/01 06:58:01;;;;;;;;;;;20.10;55.50;;;;;;5066003;28;1969;-71
2022/02/01 07:00:26;;;;;;;;;;;20.00;55.40;;;;;;5064541;28;1380;-71
2022/02/01 07:02:52;;;;;;;;;;;20.00;55.50;;;;;;5054190;28;1688;-72
2022/02/01 07:05:17;;;;;;;;;;;20.00;55.50;;;;;;5073340;28;1444;-72
2022/02/01 07:07:43;;;;;;;;;;;20.10;55.50;;;;;;5056866;28;2189;-71
2022/02/01 07:10:08;;;;;;;;;;;20.00;55.50;;;;;;5067471;28;1286;-71
2022/02/01 07:12:34;;;;;;;;;;;20.00;55.50;;;;;;5066281;28;1356;-68
2022/02/01 07:14:59;;;;;;;;;;;20.00;55.50;;;;;;5051526;28;1440;-68
2022/02/01 07:17:24;;;;;;;;;;;20.00;55.50;;;;;;5067486;28;1898;-68
2022/02/01 07:19:50;;;;;;;;;;;20.00;55.50;;;;;;5070346;28;1320;-68
2022/02/01 07:22:15;;;;;;;;;;;20.00;55.60;;;;;;5066388;28;1205;-69
2022/02/01 07:24:54;;;;;;;;;;;20.00;55.60;;;;;;5070882;28;1396;-68
2022/02/01 07:27:32;;;;;;;;;;;20.00;55.60;;;;;;5072224;28;1098;-69
2022/02/01 07:29:57;;;;;;;;;;;20.00;55.60;;;;;;5059811;28;1314;-69
2022/02/01 07:32:23;;;;;;;;;;;20.00;55.60;;;;;;5069777;28;1095;-70
2022/02/01 07:34:48;;;;;;;;;;;20.00;55.60;;;;;;5070928;28;1075;-69
2022/02/01 07:37:14;;;;;;;;;;;20.00;55.70;;;;;;5071322;28;1898;-70
2022/02/01 07:39:39;;;;;;;;;;;19.90;55.60;;;;;;5071097;28;1359;-69
2022/02/01 07:42:05;;;;;;;;;;;19.90;55.70;;;;;;5070259;28;1386;-71
2022/02/01 07:44:30;;;;;;;;;;;19.90;55.70;;;;;;5071783;28;1363;-70
2022/02/01 07:46:56;;;;;;;;;;;19.90;55.70;;;;;;5071325;28;1290;-71
2022/02/01 07:49:21;;;;;;;;;;;19.90;55.70;;;;;;5070590;28;1446;-71
2022/02/01 07:51:47;;;;;;;;;;;20.00;55.70;;;;;;5050345;28;1363;-71
2022/02/01 07:54:12;;;;;;;;;;;20.00;55.70;;;;;;5062929;28;1133;-71
2022/02/01 07:56:38;;;;;;;;;;;20.10;55.60;;;;;;5070375;28;1102;-72
2022/02/01 07:59:03;;;;;;;;;;;20.20;55.50;;;;;;5072564;28;1961;-73
2022/02/01 08:01:28;;;;;;;;;;;20.30;55.40;;;;;;5070557;28;1063;-73
2022/02/01 08:03:54;;;;;;;;;;;20.40;55.20;;;;;;5072624;28;1078;-73
2022/02/01 08:06:19;;;;;;;;;;;20.50;55.60;;;;;;5050520;28;1373;-73
2022/02/01 08:08:45;;;;;;;;;;;20.60;54.70;;;;;;5062763;28;1371;-73
2022/02/01 08:11:14;;;;;;;;;;;20.70;54.50;;;;;;5071021;28;1339;-73
2022/02/01 08:16:39;;;;;;;;;;;20.90;54.10;;;;;;5071427;28;1429;-73
2022/02/01 08:19:23;;;;;;;;;;;21.00;54.00;;;;;;5071523;28;1918;-73
2022/02/01 08:21:51;;;;;;;;;;;21.10;53.70;;;;;;5072503;28;1345;-74
2022/02/01 08:24:16;;;;;;;;;;;21.10;53.50;;;;;;5072387;28;1075;-73
2022/02/01 08:26:42;;;;;;;;;;;21.20;53.40;;;;;;5071566;28;1113;-73
2022/02/01 08:29:07;;;;;;;;;;;21.20;53.30;;;;;;5071390;28;1374;-73
2022/02/01 08:31:33;;;;;;;;;;;21.30;53.20;;;;;;5072281;28;1058;-73
2022/02/01 08:33:58;;;;;;;;;;;21.30;53.20;;;;;;5072948;28;1046;-73
2022/02/01 08:36:24;;;;;;;;;;;21.30;53.10;;;;;;5075760;28;1086;-73
2022/02/01 08:38:49;;;;;;;;;;;21.30;53.10;;;;;;5074971;28;1914;-73
2022/02/01 08:41:15;;;;;;;;;;;21.30;53.10;;;;;;5054724;28;1071;-73
2022/02/01 08:43:40;;;;;;;;;;;21.40;53.10;;;;;;5073513;28;1108;-73
2022/02/01 08:46:05;;;;;;;;;;;21.40;53.20;;;;;;5074287;28;1107;-73
2022/02/01 08:48:31;;;;;;;;;;;21.40;53.10;;;;;;5074321;28;1366;-73
2022/02/01 08:51:01;;;;;;;;;;;21.40;53.20;;;;;;5076176;28;1090;-73
2022/02/01 08:53:33;;;;;;;;;;;21.40;53.20;;;;;;5075279;28;1087;-73
2022/02/01 08:56:03;;;;;;;;;;;21.40;53.10;;;;;;5074623;28;1051;-73
2022/02/01 08:58:29;;;;;;;;;;;21.30;53.10;;;;;;5075685;28;1968;-73
2022/02/01 09:00:54;;;;;;;;;;;21.30;53.10;;;;;;5074588;28;1063;-73
2022/02/01 09:03:20;;;;;;;;;;;21.30;53.10;;;;;;5074415;28;1225;-73
2022/02/01 09:05:45;;;;;;;;;;;21.30;53.20;;;;;;5053905;28;1339;-73
2022/02/01 09:08:11;;;;;;;;;;;21.30;53.20;;;;;;5075591;28;1466;-73
2022/02/01 09:10:36;;;;;;;;;;;21.30;53.20;;;;;;5075437;28;1023;-73
2022/02/01 09:13:02;;;;;;;;;;;21.30;53.20;;;;;;5075424;28;1117;-73
2022/02/01 09:15:28;;;;;;;;;;;21.20;53.80;;;;;;5073861;28;1159;-73
2022/02/01 09:17:55;;;;;;;;;;;21.20;53.30;;;;;;5074207;28;1902;-73
2022/02/01 09:20:20;;;;;;;;;;;21.20;53.30;;;;;;5053970;28;1347;-73
2022/02/01 09:22:47;;;;;;;;;;;21.20;53.40;;;;;;5054354;28;1356;-74
2022/02/01 09:25:15;;;;;;;;;;;21.20;53.50;;;;;;5073371;28;1418;-73
2022/02/01 09:27:40;;;;;;;;;;;21.10;53.50;;;;;;5073902;28;1154;-73
2022/02/01 09:30:06;;;;;;;;;;;21.10;53.60;;;;;;5074049;28;1284;-73
2022/02/01 09:32:31;;;;;;;;;;;21.10;53.70;;;;;;5073482;28;1351;-73
2022/02/01 09:34:57;;;;;;;;;;;21.10;53.70;;;;;;5056850;28;1072;-73
2022/02/01 09:37:23;;;;;;;;;;;21.10;53.80;;;;;;5074587;28;1967;-73
2022/02/01 09:39:49;;;;;;;;;;;21.00;53.80;;;;;;5074265;28;1404;-73
2022/02/01 09:42:14;;;;;;;;;;;21.00;53.90;;;;;;5062891;28;1392;-73
2022/02/01 09:44:40;;;;;;;;;;;21.00;54.00;;;;;;5064789;28;1039;-73
2022/02/01 09:47:05;;;;;;;;;;;21.00;54.00;;;;;;5071464;28;1111;-73
2022/02/01 09:49:31;;;;;;;;;;;20.90;54.10;;;;;;5073546;28;1282;-73
2022/02/01 09:51:59;;;;;;;;;;;20.90;54.10;;;;;;5073292;28;1358;-73
2022/02/01 09:54:26;;;;;;;;;;;20.90;54.10;;;;;;5075157;28;1359;-73
2022/02/01 09:56:51;;;;;;;;;;;20.90;54.20;;;;;;5073095;28;1416;-73
2022/02/01 09:59:31;;;;;;;;;;;20.90;54.20;;;;;;5073818;28;1902;-73
2022/02/01 10:02:02;;;;;;;;;;;20.90;54.20;;;;;;5072986;28;1313;-72
2022/02/01 10:04:28;;;;;;;;;;;20.80;54.30;;;;;;5075024;28;1138;-72
2022/02/01 10:07:03;;;;;;;;;;;20.80;54.30;;;;;;5073162;28;1079;-72
2022/02/01 10:09:28;;;;;;;;;;;20.80;54.30;;;;;;5056571;28;1236;-72
2022/02/01 10:11:53;;;;;;;;;;;20.80;54.30;;;;;;5074580;28;1285;-73
2022/02/01 10:14:24;;;;;;;;;;;20.80;54.40;;;;;;5074778;28;1406;-71
2022/02/01 10:16:53;;;;;;;;;;;20.90;54.40;;;;;;5074464;28;1061;-71
2022/02/01 10:19:22;;;;;;;;;;;20.90;54.30;;;;;;5073257;28;1963;-71
2022/02/01 10:21:51;;;;;;;;;;;20.90;54.30;;;;;;5073172;28;1072;-71
2022/02/01 10:24:28;;;;;;;;;;;20.90;54.20;;;;;;5074237;28;1364;-71
2022/02/01 10:27:04;;;;;;;;;;;21.00;54.20;;;;;;5073807;28;1413;-71
2022/02/01 10:29:29;;;;;;;;;;;21.00;54.10;;;;;;5066202;28;1232;-71
2022/02/01 10:31:58;;;;;;;;;;;21.00;54.10;;;;;;5068971;28;1079;-71
2022/02/01 10:37:03;;;;;;;;;;;21.10;53.90;;;;;;5073576;28;1054;-71
2022/02/01 10:39:33;;;;;;;;;;;21.10;53.90;;;;;;5072799;28;1902;-71
2022/02/01 10:41:58;;;;;;;;;;;21.10;53.80;;;;;;5072799;28;1325;-71
2022/02/01 10:44:24;;;;;;;;;;;21.10;53.80;;;;;;5073672;28;1066;-72
2022/02/01 10:46:52;;;;;;;;;;;21.10;53.80;;;;;;5073236;28;1333;-72
2022/02/01 10:49:30;;;;;;;;;;;21.10;53.80;;;;;;5072868;28;1202;-71
2022/02/01 10:52:14;;;;;;;;;;;21.10;53.80;;;;;;5073676;28;1126;-71
2022/02/01 10:54:42;;;;;;;;;;;21.10;54.00;;;;;;5073749;28;1297;-71
2022/02/01 10:57:09;;;;;;;;;;;21.10;54.30;;;;;;5072492;28;1059;-71
2022/02/01 10:59:35;;;;;;;;;;;21.10;54.40;;;;;;5072233;28;1882;-72
2022/02/01 11:02:00;;;;;;;;;;;21.10;54.60;;;;;;5073701;28;1088;-72
2022/02/01 11:04:30;;;;;;;;;;;21.00;54.50;;;;;;5072088;28;1111;-72
2022/02/01 11:06:55;;;;;;;;;;;21.00;54.60;;;;;;5051765;28;1362;-72
2022/02/01 11:09:21;;;;;;;;;;;21.00;54.60;;;;;;5069456;28;1283;-72
2022/02/01 11:11:52;;;;;;;;;;;21.00;54.60;;;;;;5073403;28;1013;-72
2022/02/01 11:14:19;;;;;;;;;;;21.00;55.20;;;;;;5072129;28;1068;-72
2022/02/01 11:16:44;;;;;;;;;;;20.90;54.60;;;;;;5071539;28;1083;-72
2022/02/01 11:19:10;;;;;;;;;;;20.90;54.60;;;;;;5071521;28;1898;-71
2022/02/01 11:21:42;;;;;;;;;;;20.90;54.60;;;;;;5052025;28;1311;-71
2022/02/01 11:24:09;;;;;;;;;;;20.90;54.60;;;;;;5069957;28;1138;-72
2022/02/01 11:26:37;;;;;;;;;;;20.90;54.60;;;;;;5072915;28;1098;-71
2022/02/01 11:29:30;;;;;;;;;;;20.90;54.70;;;;;;5071510;28;1366;-72
2022/02/01 11:31:57;;;;;;;;;;;20.90;54.60;;;;;;5071883;28;1372;-72
2022/02/01 11:34:30;;;;;;;;;;;20.80;54.60;;;;;;5073254;28;1223;-72
2022/02/01 11:36:56;;;;;;;;;;;20.80;54.60;;;;;;5071258;28;1061;-71
2022/02/01 11:39:22;;;;;;;;;;;20.80;54.60;;;;;;5073052;28;1968;-71
2022/02/01 11:41:50;;;;;;;;;;;20.80;54.60;;;;;;5071412;28;1081;-71
2022/02/01 11:44:18;;;;;;;;;;;20.80;54.70;;;;;;5071914;28;1081;-71
2022/02/01 11:47:03;;;;;;;;;;;20.80;54.70;;;;;;5072374;28;1122;-71
2022/02/01 11:49:28;;;;;;;;;;;20.80;54.70;;;;;;5071269;28;1317;-71
2022/02/01 11:52:04;;;;;;;;;;;20.80;54.70;;;;;;5071250;28;1325;-70
2022/02/01 11:54:31;;;;;;;;;;;20.80;54.70;;;;;;5071573;28;1298;-70
2022/02/01 11:56:57;;;;;;;;;;;20.80;54.70;;;;;;5071009;28;1390;-70
2022/02/01 11:59:26;;;;;;;;;;;20.70;54.70;;;;;;5071734;28;1973;-71
2022/02/01 12:01:51;;;;;;;;;;;20.70;54.80;;;;;;5071329;28;1270;-71
2022/02/01 12:04:18;;;;;;;;;;;20.70;54.80;;;;;;5071399;28;1279;-71
2022/02/01 12:06:46;;;;;;;;;;;20.70;54.90;;;;;;5072174;28;983;-71
2022/02/01 12:09:18;;;;;;;;;;;20.70;55.00;;;;;;5071030;28;1280;-71
2022/02/01 12:11:44;;;;;;;;;;;20.70;55.00;;;;;;5052346;28;1245;-71
2022/02/01 12:14:09;;;;;;;;;;;20.60;55.00;;;;;;5065848;28;1330;-71
2022/02/01 12:16:35;;;;;;;;;;;20.60;55.10;;;;;;5054140;28;1224;-71
2022/02/01 12:19:07;;;;;;;;;;;20.60;55.10;;;;;;5072973;28;1910;-71
2022/02/01 12:21:35;;;;;;;;;;;20.60;55.10;;;;;;5054688;28;1148;-71
2022/02/01 12:24:03;;;;;;;;;;;20.60;55.20;;;;;;5071200;28;1075;-71
2022/02/01 12:26:30;;;;;;;;;;;20.50;55.20;;;;;;5070832;28;1258;-71
2022/02/01 12:28:56;;;;;;;;;;;20.50;55.20;;;;;;5067644;28;1841;-71
2022/02/01 12:31:21;;;;;;;;;;;20.50;55.20;;;;;;5062755;28;1165;-71
2022/02/01 12:33:48;;;;;;;;;;;20.50;55.20;;;;;;5070882;28;1126;-72
2022/02/01 12:36:14;;;;;;;;;;;20.60;55.20;;;;;;5070282;28;1306;-72
2022/02/01 12:38:40;;;;;;;;;;;20.60;55.20;;;;;;5071345;28;1965;-72
2022/02/01 12:41:17;;;;;;;;;;;20.60;55.10;;;;;;5072081;28;1378;-72
2022/02/01 12:45:43;;;;;;;;;;;20.70;55.00;;;;;;5072251;28;1197;-72
2022/02/01 12:46:59;;;;;;;;;;;20.80;54.90;;;;;;5071439;28;1161;-71
2022/02/01 12:49:31;;;;;;;;;;;20.90;54.80;;;;;;5068789;28;1532;-71
2022/02/01 12:51:57;;;;;;;;;;;21.00;54.70;;;;;;5070363;28;1346;-71
2022/02/01 12:54:26;;;;;;;;;;;21.00;54.40;;;;;;5066720;28;1986;-71
2022/02/01 12:56:51;;;;;;;;;;;21.10;54.30;;;;;;5064829;28;1399;-71
2022/02/01 12:59:18;;;;;;;;;;;21.10;54.10;;;;;;5061138;28;1905;-72
2022/02/01 13:01:44;;;;;;;;;;;21.20;54.00;;;;;;5052153;28;1369;-72
2022/02/01 13:04:18;;;;;;;;;;;21.20;53.90;;;;;;5062786;28;2039;-73
2022/02/01 13:06:46;;;;;;;;;;;21.30;53.90;;;;;;5057879;28;1595;-72
2022/02/01 13:14:44;;;;;;;;;;;21.40;53.70;;;;;;5055251;28;945;-72
2022/02/01 13:17:22;;;;;;;;;;;21.40;53.60;;;;;;5063082;28;1134;-72
2022/02/01 13:22:35;;;;;;;;;;;21.40;53.50;;;;;;5073492;28;988;-73
2022/02/01 13:25:07;;;;;;;;;;;21.40;53.40;;;;;;5074857;28;1088;-73
2022/02/01 13:27:33;;;;;;;;;;;21.40;53.40;;;;;;5059463;28;1197;-73
2022/02/01 13:30:03;;;;;;;;;;;21.40;53.50;;;;;;5072958;28;1412;-72
2022/02/01 13:32:38;;;;;;;;;;;21.40;53.40;;;;;;5074354;28;1267;-72
2022/02/01 13:35:05;;;;;;;;;;;21.40;53.50;;;;;;5075611;28;1364;-69
2022/02/01 13:37:31;;;;;;;;;;;21.40;53.50;;;;;;5069687;28;1973;-70
2022/02/01 13:39:57;;;;;;;;;;;21.30;53.50;;;;;;5055649;28;1302;-70
2022/02/01 13:42:27;;;;;;;;;;;21.30;53.50;;;;;;5073088;28;1316;-70
2022/02/01 13:45:13;;;;;;;;;;;21.30;53.60;;;;;;5054450;28;1353;-70
2022/02/01 13:47:42;;;;;;;;;;;21.30;53.70;;;;;;5063237;28;1065;-71
2022/02/01 13:50:14;;;;;;;;;;;21.30;53.70;;;;;;5070660;28;1290;-70
2022/02/01 13:52:40;;;;;;;;;;;21.30;53.80;;;;;;5069577;28;1730;-69
2022/02/01 13:55:16;;;;;;;;;;;21.20;53.80;;;;;;5050828;28;1210;-70
2022/02/01 13:57:41;;;;;;;;;;;21.20;53.90;;;;;;5065869;28;1898;-70
2022/02/01 14:00:08;;;;;;;;;;;21.20;53.90;;;;;;5073551;28;1487;-70
2022/02/01 14:02:38;;;;;;;;;;;21.20;54.00;;;;;;5056014;28;1183;-69
2022/02/01 14:05:08;;;;;;;;;;;21.20;54.00;;;;;;5072018;28;1193;-70
2022/02/01 14:25:07;;;;;;;;;;;21.10;54.30;;;;;;5059281;28;1142;-72
2022/02/01 14:27:08;;;;;;;;;;;21.10;54.30;;;;;;5072426;28;1282;-71
2022/02/01 14:34:52;;;;;;;;;;;21.00;54.30;;;;;;5074281;28;1072;-71
2022/02/01 14:37:27;;;;;;;;;;;21.00;54.40;;;;;;5072399;28;1316;-72
2022/02/01 14:45:11;;;;;;;;;;;21.00;55.00;;;;;;5074191;28;1430;-71
2022/02/01 14:47:37;;;;;;;;;;;21.00;54.50;;;;;;5072559;28;1076;-71
2022/02/01 14:50:02;;;;;;;;;;;20.90;54.50;;;;;;5073773;28;1356;-72
2022/02/01 14:52:28;;;;;;;;;;;20.90;54.50;;;;;;5074146;28;1059;-70
2022/02/01 14:54:58;;;;;;;;;;;20.90;54.60;;;;;;5074136;28;1280;-70
2022/02/01 15:13:25;;;;;;;;;;;20.90;54.70;;;;;;5072933;28;1266;-70
2022/02/01 15:15:50;;;;;;;;;;;20.80;54.70;;;;;;5073130;28;1253;-70
2022/02/01 15:18:16;;;;;;;;;;;20.80;54.70;;;;;;5073131;28;1963;-69
2022/02/01 15:20:41;;;;;;;;;;;20.80;54.80;;;;;;5072176;28;1390;-69
2022/02/01 15:23:06;;;;;;;;;;;20.80;54.80;;;;;;5073268;28;1050;-69
2022/02/01 15:25:32;;;;;;;;;;;20.80;54.90;;;;;;5071688;28;1533;-69
2022/02/01 15:27:57;;;;;;;;;;;20.80;54.90;;;;;;5073348;28;1354;-69
2022/02/01 15:30:23;;;;;;;;;;;20.80;54.90;;;;;;5072700;28;1311;-69
2022/02/01 15:32:48;;;;;;;;;;;20.80;54.90;;;;;;5071906;28;1253;-69
2022/02/01 15:35:16;;;;;;;;;;;20.70;54.90;;;;;;5065979;28;1618;-69
2022/02/01 15:37:43;;;;;;;;;;;20.70;54.90;;;;;;5040904;28;1902;-69
2022/02/01 15:54:35;;;;;;;;;;;20.60;55.10;;;;;;5069292;28;1168;-70
2022/02/01 15:57:20;;;;;;;;;;;20.60;55.10;;;;;;5072236;28;1330;-70
2022/02/01 15:59:46;;;;;;;;;;;20.60;55.20;;;;;;5072411;28;1971;-70
2022/02/01 16:02:14;;;;;;;;;;;20.60;55.20;;;;;;5071074;28;1085;-69
2022/02/01 16:04:40;;;;;;;;;;;20.60;55.20;;;;;;5071505;28;1212;-71
2022/02/01 16:07:11;;;;;;;;;;;20.60;55.30;;;;;;5070837;28;1063;-70
2022/02/01 16:12:25;;;;;;;;;;;20.60;55.30;;;;;;5072855;28;1298;-70
2022/02/01 16:14:51;;;;;;;;;;;20.50;55.30;;;;;;5071318;28;1274;-70
2022/02/01 16:17:16;;;;;;;;;;;20.50;55.30;;;;;;5071937;28;1332;-69
2022/02/01 16:19:42;;;;;;;;;;;20.50;55.30;;;;;;5071292;28;1961;-69
2022/02/01 16:22:07;;;;;;;;;;;20.50;55.30;;;;;;5072389;28;1055;-69
2022/02/01 16:24:36;;;;;;;;;;;20.50;55.30;;;;;;5058965;28;1158;-69
2022/02/01 16:27:02;;;;;;;;;;;20.50;55.40;;;;;;5051127;28;1285;-69
2022/02/01 16:29:28;;;;;;;;;;;20.50;55.40;;;;;;5071181;28;1739;-70
2022/02/01 16:31:53;;;;;;;;;;;20.50;55.40;;;;;;5070892;28;1400;-70
2022/02/01 16:34:18;;;;;;;;;;;20.40;55.40;;;;;;5064649;28;2009;-71
2022/02/01 16:36:44;;;;;;;;;;;20.50;55.50;;;;;;5066071;28;1226;-70
2022/02/01 16:39:10;;;;;;;;;;;20.50;55.50;;;;;;5071312;28;1918;-69
2022/02/01 16:41:36;;;;;;;;;;;20.50;55.50;;;;;;5072197;28;1117;-70
2022/02/01 16:44:02;;;;;;;;;;;20.40;55.50;;;;;;5050956;28;1254;-71
2022/02/01 16:46:29;;;;;;;;;;;20.40;55.50;;;;;;5066512;28;1079;-71
2022/02/01 16:48:54;;;;;;;;;;;20.40;55.50;;;;;;5070517;28;1222;-71
2022/02/01 16:51:21;;;;;;;;;;;20.40;55.50;;;;;;5071885;28;1106;-71
2022/02/01 16:53:50;;;;;;;;;;;20.40;55.50;;;;;;5070536;28;1635;-71
2022/02/01 16:56:35;;;;;;;;;;;20.40;55.50;;;;;;5061569;28;1995;-70
2022/02/01 16:59:07;;;;;;;;;;;20.40;55.60;;;;;;5073585;28;1905;-71